sensor_id;sensor_type;location;lat;lon;timestamp;P1;durP1;ratioP1;P2;durP2;ratioP2
10711;SDS011;5407;51.234;6.804;2023-05-27T00:00:19;8.63;;;4.20;;
10711;SDS011;5407;51.234;6.804;2023-05-27T00:02:46;11.30;;;4.80;;
10711;SDS011;5407;51.234;6.804;2023-05-27T00:05:13;9.75;;;4.55;;
10711;SDS011;5407;51.234;6.804;2023-05-27T00:07:40;12.68;;;4.65;;
10711;SDS011;5407;51.234;6.804;2023-05-27T00:10:07;12.45;;;4.85;;
10711;SDS011;5407;51.234;6.804;2023-05-27T00:12:34;12.68;;;4.43;;
10711;SDS011;5407;51.234;6.804;2023-05-27T00:15:01;10.00;;;4.28;;
10711;SDS011;5407;51.234;6.804;2023-05-27T00:17:30;11.93;;;4.63;;
10711;SDS011;5407;51.234;6.804;2023-05-27T00:19:57;11.85;;;4.50;;
10711;SDS011;5407;51.234;6.804;2023-05-27T00:22:30;12.82;;;4.70;;
10711;SDS011;5407;51.234;6.804;2023-05-27T00:24:57;11.65;;;4.80;;
10711;SDS011;5407;51.234;6.804;2023-05-27T00:27:24;14.65;;;4.93;;
10711;SDS011;5407;51.234;6.804;2023-05-27T00:29:51;10.93;;;4.97;;
10711;SDS011;5407;51.234;6.804;2023-05-27T00:32:18;11.63;;;4.70;;
10711;SDS011;5407;51.234;6.804;2023-05-27T00:34:46;10.85;;;4.13;;
10711;SDS011;5407;51.234;6.804;2023-05-27T00:37:13;15.63;;;4.72;;
10711;SDS011;5407;51.234;6.804;2023-05-27T00:39:40;11.38;;;4.32;;
10711;SDS011;5407;51.234;6.804;2023-05-27T00:42:07;11.55;;;4.82;;
10711;SDS011;5407;51.234;6.804;2023-05-27T00:44:34;12.13;;;4.53;;
10711;SDS011;5407;51.234;6.804;2023-05-27T00:47:01;10.13;;;4.10;;
10711;SDS011;5407;51.234;6.804;2023-05-27T00:49:28;11.98;;;4.88;;
10711;SDS011;5407;51.234;6.804;2023-05-27T00:51:56;11.00;;;4.47;;
10711;SDS011;5407;51.234;6.804;2023-05-27T00:54:23;17.17;;;4.93;;
10711;SDS011;5407;51.234;6.804;2023-05-27T00:56:50;14.88;;;4.70;;
10711;SDS011;5407;51.234;6.804;2023-05-27T00:59:17;10.25;;;4.28;;
10711;SDS011;5407;51.234;6.804;2023-05-27T01:01:44;9.85;;;4.20;;
10711;SDS011;5407;51.234;6.804;2023-05-27T01:04:11;9.63;;;4.35;;
10711;SDS011;5407;51.234;6.804;2023-05-27T01:06:41;11.73;;;4.63;;
10711;SDS011;5407;51.234;6.804;2023-05-27T01:09:17;15.45;;;5.03;;
10711;SDS011;5407;51.234;6.804;2023-05-27T01:11:59;10.52;;;4.25;;
10711;SDS011;5407;51.234;6.804;2023-05-27T01:14:34;13.30;;;4.75;;
10711;SDS011;5407;51.234;6.804;2023-05-27T01:17:05;11.15;;;4.50;;
10711;SDS011;5407;51.234;6.804;2023-05-27T01:19:33;12.07;;;4.38;;
10711;SDS011;5407;51.234;6.804;2023-05-27T01:22:05;12.68;;;4.78;;
10711;SDS011;5407;51.234;6.804;2023-05-27T01:24:35;12.00;;;4.35;;
10711;SDS011;5407;51.234;6.804;2023-05-27T01:27:02;12.52;;;4.57;;
10711;SDS011;5407;51.234;6.804;2023-05-27T01:29:30;12.05;;;4.55;;
10711;SDS011;5407;51.234;6.804;2023-05-27T01:32:00;11.98;;;4.63;;
10711;SDS011;5407;51.234;6.804;2023-05-27T01:34:33;12.68;;;4.50;;
10711;SDS011;5407;51.234;6.804;2023-05-27T01:37:06;14.50;;;4.35;;
10711;SDS011;5407;51.234;6.804;2023-05-27T01:39:37;11.25;;;4.18;;
10711;SDS011;5407;51.234;6.804;2023-05-27T01:42:05;10.57;;;4.40;;
10711;SDS011;5407;51.234;6.804;2023-05-27T01:44:34;11.65;;;4.63;;
10711;SDS011;5407;51.234;6.804;2023-05-27T01:47:02;10.73;;;4.53;;
10711;SDS011;5407;51.234;6.804;2023-05-27T01:49:30;10.20;;;4.50;;
10711;SDS011;5407;51.234;6.804;2023-05-27T01:51:57;13.27;;;4.50;;
10711;SDS011;5407;51.234;6.804;2023-05-27T01:54:24;13.52;;;4.43;;
10711;SDS011;5407;51.234;6.804;2023-05-27T01:56:52;14.07;;;4.68;;
10711;SDS011;5407;51.234;6.804;2023-05-27T01:59:19;12.90;;;4.55;;
10711;SDS011;5407;51.234;6.804;2023-05-27T02:01:46;12.73;;;4.78;;
10711;SDS011;5407;51.234;6.804;2023-05-27T02:04:13;10.02;;;4.40;;
10711;SDS011;5407;51.234;6.804;2023-05-27T02:06:40;12.27;;;4.40;;
10711;SDS011;5407;51.234;6.804;2023-05-27T02:09:08;13.82;;;4.43;;
10711;SDS011;5407;51.234;6.804;2023-05-27T02:11:36;13.25;;;4.68;;
10711;SDS011;5407;51.234;6.804;2023-05-27T02:14:04;9.25;;;4.45;;
10711;SDS011;5407;51.234;6.804;2023-05-27T02:16:32;12.20;;;4.75;;
10711;SDS011;5407;51.234;6.804;2023-05-27T02:19:00;10.27;;;4.43;;
10711;SDS011;5407;51.234;6.804;2023-05-27T02:21:27;10.13;;;4.40;;
10711;SDS011;5407;51.234;6.804;2023-05-27T02:23:54;10.55;;;4.28;;
10711;SDS011;5407;51.234;6.804;2023-05-27T02:26:21;15.13;;;4.88;;
10711;SDS011;5407;51.234;6.804;2023-05-27T02:28:48;13.05;;;4.82;;
10711;SDS011;5407;51.234;6.804;2023-05-27T02:31:16;12.35;;;4.30;;
10711;SDS011;5407;51.234;6.804;2023-05-27T02:33:43;11.25;;;4.22;;
10711;SDS011;5407;51.234;6.804;2023-05-27T02:36:13;14.00;;;4.70;;
10711;SDS011;5407;51.234;6.804;2023-05-27T02:38:41;10.13;;;4.05;;
10711;SDS011;5407;51.234;6.804;2023-05-27T02:41:09;11.68;;;4.22;;
10711;SDS011;5407;51.234;6.804;2023-05-27T02:43:36;14.68;;;4.68;;
10711;SDS011;5407;51.234;6.804;2023-05-27T02:46:03;12.15;;;4.60;;
10711;SDS011;5407;51.234;6.804;2023-05-27T02:48:31;14.07;;;4.75;;
10711;SDS011;5407;51.234;6.804;2023-05-27T02:50:58;11.73;;;4.70;;
10711;SDS011;5407;51.234;6.804;2023-05-27T02:53:25;12.93;;;4.40;;
10711;SDS011;5407;51.234;6.804;2023-05-27T02:55:52;12.10;;;4.38;;
10711;SDS011;5407;51.234;6.804;2023-05-27T02:58:19;12.90;;;4.43;;
10711;SDS011;5407;51.234;6.804;2023-05-27T03:00:46;14.75;;;4.80;;
10711;SDS011;5407;51.234;6.804;2023-05-27T03:03:14;13.57;;;4.85;;
10711;SDS011;5407;51.234;6.804;2023-05-27T03:05:43;14.10;;;5.07;;
10711;SDS011;5407;51.234;6.804;2023-05-27T03:08:10;10.32;;;4.30;;
10711;SDS011;5407;51.234;6.804;2023-05-27T03:10:37;15.82;;;5.00;;
10711;SDS011;5407;51.234;6.804;2023-05-27T03:13:03;14.13;;;4.55;;
10711;SDS011;5407;51.234;6.804;2023-05-27T03:15:30;12.27;;;4.70;;
10711;SDS011;5407;51.234;6.804;2023-05-27T03:17:58;14.15;;;4.82;;
10711;SDS011;5407;51.234;6.804;2023-05-27T03:20:25;10.20;;;4.00;;
10711;SDS011;5407;51.234;6.804;2023-05-27T03:22:53;12.48;;;4.45;;
10711;SDS011;5407;51.234;6.804;2023-05-27T03:25:21;11.82;;;4.68;;
10711;SDS011;5407;51.234;6.804;2023-05-27T03:27:48;13.85;;;4.35;;
10711;SDS011;5407;51.234;6.804;2023-05-27T03:30:16;12.07;;;4.50;;
10711;SDS011;5407;51.234;6.804;2023-05-27T03:32:46;11.07;;;4.53;;
10711;SDS011;5407;51.234;6.804;2023-05-27T03:35:16;13.27;;;4.90;;
10711;SDS011;5407;51.234;6.804;2023-05-27T03:37:45;13.35;;;4.95;;
10711;SDS011;5407;51.234;6.804;2023-05-27T03:40:13;10.50;;;4.25;;
10711;SDS011;5407;51.234;6.804;2023-05-27T03:42:40;12.68;;;4.70;;
10711;SDS011;5407;51.234;6.804;2023-05-27T03:45:09;11.13;;;4.43;;
10711;SDS011;5407;51.234;6.804;2023-05-27T03:47:36;11.73;;;4.50;;
10711;SDS011;5407;51.234;6.804;2023-05-27T03:50:03;11.52;;;4.40;;
10711;SDS011;5407;51.234;6.804;2023-05-27T03:52:31;11.55;;;4.40;;
10711;SDS011;5407;51.234;6.804;2023-05-27T03:55:00;11.23;;;4.43;;
10711;SDS011;5407;51.234;6.804;2023-05-27T03:57:28;12.77;;;4.38;;
10711;SDS011;5407;51.234;6.804;2023-05-27T03:59:55;12.10;;;4.53;;
10711;SDS011;5407;51.234;6.804;2023-05-27T04:02:22;11.10;;;4.53;;
10711;SDS011;5407;51.234;6.804;2023-05-27T04:04:50;11.48;;;4.80;;
10711;SDS011;5407;51.234;6.804;2023-05-27T04:07:19;11.90;;;4.45;;
10711;SDS011;5407;51.234;6.804;2023-05-27T04:09:51;12.07;;;4.50;;
10711;SDS011;5407;51.234;6.804;2023-05-27T04:12:18;11.93;;;4.45;;
10711;SDS011;5407;51.234;6.804;2023-05-27T04:14:49;12.95;;;4.55;;
10711;SDS011;5407;51.234;6.804;2023-05-27T04:17:16;14.93;;;4.63;;
10711;SDS011;5407;51.234;6.804;2023-05-27T04:19:43;11.43;;;4.13;;
10711;SDS011;5407;51.234;6.804;2023-05-27T04:22:10;15.15;;;4.43;;
10711;SDS011;5407;51.234;6.804;2023-05-27T04:24:37;16.17;;;5.00;;
10711;SDS011;5407;51.234;6.804;2023-05-27T04:27:06;11.50;;;4.57;;
10711;SDS011;5407;51.234;6.804;2023-05-27T04:29:33;12.32;;;4.28;;
10711;SDS011;5407;51.234;6.804;2023-05-27T04:32:02;12.82;;;4.30;;
10711;SDS011;5407;51.234;6.804;2023-05-27T04:34:30;11.70;;;4.45;;
10711;SDS011;5407;51.234;6.804;2023-05-27T04:36:56;11.75;;;4.60;;
10711;SDS011;5407;51.234;6.804;2023-05-27T04:39:26;9.68;;;4.32;;
10711;SDS011;5407;51.234;6.804;2023-05-27T04:41:53;8.50;;;3.97;;
10711;SDS011;5407;51.234;6.804;2023-05-27T04:44:27;12.32;;;5.00;;
10711;SDS011;5407;51.234;6.804;2023-05-27T04:46:57;12.48;;;4.70;;
10711;SDS011;5407;51.234;6.804;2023-05-27T04:49:25;14.95;;;4.85;;
10711;SDS011;5407;51.234;6.804;2023-05-27T04:51:53;12.40;;;4.95;;
10711;SDS011;5407;51.234;6.804;2023-05-27T04:54:21;11.45;;;4.97;;
10711;SDS011;5407;51.234;6.804;2023-05-27T04:56:49;11.05;;;4.57;;
10711;SDS011;5407;51.234;6.804;2023-05-27T04:59:20;11.00;;;4.47;;
10711;SDS011;5407;51.234;6.804;2023-05-27T05:01:55;12.82;;;4.80;;
10711;SDS011;5407;51.234;6.804;2023-05-27T05:04:44;10.48;;;4.90;;
10711;SDS011;5407;51.234;6.804;2023-05-27T05:07:12;11.30;;;4.85;;
10711;SDS011;5407;51.234;6.804;2023-05-27T05:09:40;12.45;;;5.03;;
10711;SDS011;5407;51.234;6.804;2023-05-27T05:12:14;11.85;;;4.60;;
10711;SDS011;5407;51.234;6.804;2023-05-27T05:14:45;13.63;;;4.68;;
10711;SDS011;5407;51.234;6.804;2023-05-27T05:17:12;9.90;;;4.28;;
10711;SDS011;5407;51.234;6.804;2023-05-27T05:19:40;14.00;;;4.80;;
10711;SDS011;5407;51.234;6.804;2023-05-27T05:22:08;15.60;;;4.72;;
10711;SDS011;5407;51.234;6.804;2023-05-27T05:24:36;12.50;;;4.53;;
10711;SDS011;5407;51.234;6.804;2023-05-27T05:27:03;12.40;;;4.72;;
10711;SDS011;5407;51.234;6.804;2023-05-27T05:29:31;10.07;;;4.97;;
10711;SDS011;5407;51.234;6.804;2023-05-27T05:31:58;9.50;;;4.70;;
10711;SDS011;5407;51.234;6.804;2023-05-27T05:34:25;11.27;;;4.10;;
10711;SDS011;5407;51.234;6.804;2023-05-27T05:36:52;14.45;;;4.40;;
10711;SDS011;5407;51.234;6.804;2023-05-27T05:39:21;9.98;;;4.15;;
10711;SDS011;5407;51.234;6.804;2023-05-27T05:41:52;11.13;;;4.85;;
10711;SDS011;5407;51.234;6.804;2023-05-27T05:44:19;12.30;;;4.72;;
10711;SDS011;5407;51.234;6.804;2023-05-27T05:46:50;11.55;;;4.10;;
10711;SDS011;5407;51.234;6.804;2023-05-27T05:49:18;11.23;;;4.32;;
10711;SDS011;5407;51.234;6.804;2023-05-27T05:51:46;10.73;;;4.47;;
10711;SDS011;5407;51.234;6.804;2023-05-27T05:54:13;11.52;;;4.88;;
10711;SDS011;5407;51.234;6.804;2023-05-27T05:56:48;9.57;;;4.47;;
10711;SDS011;5407;51.234;6.804;2023-05-27T05:59:15;12.63;;;4.75;;
10711;SDS011;5407;51.234;6.804;2023-05-27T06:01:42;13.35;;;4.45;;
10711;SDS011;5407;51.234;6.804;2023-05-27T06:04:09;14.10;;;4.70;;
10711;SDS011;5407;51.234;6.804;2023-05-27T06:06:39;10.73;;;4.30;;
10711;SDS011;5407;51.234;6.804;2023-05-27T06:09:29;13.82;;;5.30;;
10711;SDS011;5407;51.234;6.804;2023-05-27T06:12:01;13.25;;;4.65;;
10711;SDS011;5407;51.234;6.804;2023-05-27T06:14:35;11.80;;;4.60;;
10711;SDS011;5407;51.234;6.804;2023-05-27T06:17:02;12.50;;;4.53;;
10711;SDS011;5407;51.234;6.804;2023-05-27T06:19:29;11.23;;;4.22;;
10711;SDS011;5407;51.234;6.804;2023-05-27T06:21:56;13.40;;;4.97;;
10711;SDS011;5407;51.234;6.804;2023-05-27T06:24:23;12.10;;;4.75;;
10711;SDS011;5407;51.234;6.804;2023-05-27T06:27:04;9.70;;;4.45;;
10711;SDS011;5407;51.234;6.804;2023-05-27T06:29:31;14.35;;;4.75;;
10711;SDS011;5407;51.234;6.804;2023-05-27T06:31:58;13.13;;;5.00;;
10711;SDS011;5407;51.234;6.804;2023-05-27T06:34:25;13.93;;;4.85;;
10711;SDS011;5407;51.234;6.804;2023-05-27T06:36:52;10.38;;;4.20;;
10711;SDS011;5407;51.234;6.804;2023-05-27T06:39:19;14.07;;;4.70;;
10711;SDS011;5407;51.234;6.804;2023-05-27T06:41:48;12.55;;;4.68;;
10711;SDS011;5407;51.234;6.804;2023-05-27T06:44:35;11.52;;;4.78;;
10711;SDS011;5407;51.234;6.804;2023-05-27T06:47:10;14.05;;;5.05;;
10711;SDS011;5407;51.234;6.804;2023-05-27T06:49:37;13.30;;;5.15;;
10711;SDS011;5407;51.234;6.804;2023-05-27T06:52:05;12.85;;;5.55;;
10711;SDS011;5407;51.234;6.804;2023-05-27T06:54:43;9.95;;;4.43;;
10711;SDS011;5407;51.234;6.804;2023-05-27T06:57:43;12.50;;;5.20;;
10711;SDS011;5407;51.234;6.804;2023-05-27T07:00:17;13.63;;;5.15;;
10711;SDS011;5407;51.234;6.804;2023-05-27T07:03:00;13.07;;;5.13;;
10711;SDS011;5407;51.234;6.804;2023-05-27T07:05:26;9.98;;;4.47;;
10711;SDS011;5407;51.234;6.804;2023-05-27T07:07:53;11.85;;;4.78;;
10711;SDS011;5407;51.234;6.804;2023-05-27T07:10:20;15.45;;;4.53;;
10711;SDS011;5407;51.234;6.804;2023-05-27T07:12:47;12.73;;;4.70;;
10711;SDS011;5407;51.234;6.804;2023-05-27T07:15:26;11.25;;;4.40;;
10711;SDS011;5407;51.234;6.804;2023-05-27T07:17:53;13.10;;;4.88;;
10711;SDS011;5407;51.234;6.804;2023-05-27T07:20:20;13.38;;;5.25;;
10711;SDS011;5407;51.234;6.804;2023-05-27T07:22:48;10.85;;;4.68;;
10711;SDS011;5407;51.234;6.804;2023-05-27T07:25:16;9.85;;;4.45;;
10711;SDS011;5407;51.234;6.804;2023-05-27T07:27:43;11.65;;;4.72;;
10711;SDS011;5407;51.234;6.804;2023-05-27T07:30:10;10.50;;;4.63;;
10711;SDS011;5407;51.234;6.804;2023-05-27T07:32:45;12.80;;;4.85;;
10711;SDS011;5407;51.234;6.804;2023-05-27T07:35:12;13.52;;;4.32;;
10711;SDS011;5407;51.234;6.804;2023-05-27T07:37:39;13.38;;;4.90;;
10711;SDS011;5407;51.234;6.804;2023-05-27T07:40:06;11.95;;;4.50;;
10711;SDS011;5407;51.234;6.804;2023-05-27T07:42:37;11.57;;;4.60;;
10711;SDS011;5407;51.234;6.804;2023-05-27T07:45:04;12.40;;;4.28;;
10711;SDS011;5407;51.234;6.804;2023-05-27T07:47:32;10.02;;;4.40;;
10711;SDS011;5407;51.234;6.804;2023-05-27T07:50:00;11.18;;;4.47;;
10711;SDS011;5407;51.234;6.804;2023-05-27T07:52:43;8.77;;;3.80;;
10711;SDS011;5407;51.234;6.804;2023-05-27T07:55:21;13.55;;;4.15;;
10711;SDS011;5407;51.234;6.804;2023-05-27T07:57:48;9.88;;;3.85;;
10711;SDS011;5407;51.234;6.804;2023-05-27T08:00:15;11.95;;;4.20;;
10711;SDS011;5407;51.234;6.804;2023-05-27T08:02:51;12.38;;;4.10;;
10711;SDS011;5407;51.234;6.804;2023-05-27T08:05:24;13.05;;;3.90;;
10711;SDS011;5407;51.234;6.804;2023-05-27T08:08:14;9.23;;;3.83;;
10711;SDS011;5407;51.234;6.804;2023-05-27T08:11:07;9.50;;;3.80;;
10711;SDS011;5407;51.234;6.804;2023-05-27T08:14:00;8.85;;;4.03;;
10711;SDS011;5407;51.234;6.804;2023-05-27T08:16:33;8.70;;;3.80;;
10711;SDS011;5407;51.234;6.804;2023-05-27T08:19:05;10.88;;;4.10;;
10711;SDS011;5407;51.234;6.804;2023-05-27T08:21:51;14.05;;;4.53;;
10711;SDS011;5407;51.234;6.804;2023-05-27T08:24:37;11.50;;;4.25;;
10711;SDS011;5407;51.234;6.804;2023-05-27T08:27:41;9.90;;;3.83;;
10711;SDS011;5407;51.234;6.804;2023-05-27T08:30:13;7.78;;;3.78;;
10711;SDS011;5407;51.234;6.804;2023-05-27T08:32:48;12.35;;;4.22;;
10711;SDS011;5407;51.234;6.804;2023-05-27T08:35:16;9.90;;;3.97;;
10711;SDS011;5407;51.234;6.804;2023-05-27T08:37:45;10.13;;;4.10;;
10711;SDS011;5407;51.234;6.804;2023-05-27T08:40:13;9.25;;;3.95;;
10711;SDS011;5407;51.234;6.804;2023-05-27T08:42:45;11.68;;;4.10;;
10711;SDS011;5407;51.234;6.804;2023-05-27T08:45:13;11.45;;;4.43;;
10711;SDS011;5407;51.234;6.804;2023-05-27T08:47:40;11.60;;;3.70;;
10711;SDS011;5407;51.234;6.804;2023-05-27T08:50:13;9.38;;;3.63;;
10711;SDS011;5407;51.234;6.804;2023-05-27T08:52:42;7.47;;;3.65;;
10711;SDS011;5407;51.234;6.804;2023-05-27T08:55:14;8.35;;;3.65;;
10711;SDS011;5407;51.234;6.804;2023-05-27T08:57:44;9.75;;;3.78;;
10711;SDS011;5407;51.234;6.804;2023-05-27T09:00:16;8.88;;;3.90;;
10711;SDS011;5407;51.234;6.804;2023-05-27T09:02:45;9.45;;;3.58;;
10711;SDS011;5407;51.234;6.804;2023-05-27T09:05:12;8.50;;;3.95;;
10711;SDS011;5407;51.234;6.804;2023-05-27T09:07:41;7.28;;;3.70;;
10711;SDS011;5407;51.234;6.804;2023-05-27T09:10:09;8.48;;;3.42;;
10711;SDS011;5407;51.234;6.804;2023-05-27T09:12:36;9.52;;;3.50;;
10711;SDS011;5407;51.234;6.804;2023-05-27T09:15:04;8.75;;;3.53;;
10711;SDS011;5407;51.234;6.804;2023-05-27T09:17:31;8.18;;;3.50;;
10711;SDS011;5407;51.234;6.804;2023-05-27T09:19:58;6.18;;;3.28;;
10711;SDS011;5407;51.234;6.804;2023-05-27T09:22:28;8.23;;;3.83;;
10711;SDS011;5407;51.234;6.804;2023-05-27T09:24:56;7.97;;;3.40;;
10711;SDS011;5407;51.234;6.804;2023-05-27T09:27:28;9.02;;;3.40;;
10711;SDS011;5407;51.234;6.804;2023-05-27T09:29:55;8.77;;;3.28;;
10711;SDS011;5407;51.234;6.804;2023-05-27T09:32:23;7.35;;;3.53;;
10711;SDS011;5407;51.234;6.804;2023-05-27T09:34:52;7.70;;;3.20;;
10711;SDS011;5407;51.234;6.804;2023-05-27T09:37:19;8.25;;;4.07;;
10711;SDS011;5407;51.234;6.804;2023-05-27T09:39:51;10.85;;;4.85;;
10711;SDS011;5407;51.234;6.804;2023-05-27T09:42:19;9.20;;;3.83;;
10711;SDS011;5407;51.234;6.804;2023-05-27T09:44:47;6.55;;;3.35;;
10711;SDS011;5407;51.234;6.804;2023-05-27T09:47:15;7.50;;;3.58;;
10711;SDS011;5407;51.234;6.804;2023-05-27T09:49:45;8.00;;;3.83;;
10711;SDS011;5407;51.234;6.804;2023-05-27T09:52:18;7.70;;;3.50;;
10711;SDS011;5407;51.234;6.804;2023-05-27T09:54:47;6.57;;;3.40;;
10711;SDS011;5407;51.234;6.804;2023-05-27T09:57:15;8.10;;;4.22;;
10711;SDS011;5407;51.234;6.804;2023-05-27T09:59:45;8.60;;;4.93;;
10711;SDS011;5407;51.234;6.804;2023-05-27T10:02:16;7.72;;;4.28;;
10711;SDS011;5407;51.234;6.804;2023-05-27T10:04:46;7.35;;;4.05;;
10711;SDS011;5407;51.234;6.804;2023-05-27T10:07:16;7.40;;;3.78;;
10711;SDS011;5407;51.234;6.804;2023-05-27T10:09:46;8.20;;;3.85;;
10711;SDS011;5407;51.234;6.804;2023-05-27T10:12:14;9.25;;;3.83;;
10711;SDS011;5407;51.234;6.804;2023-05-27T10:14:42;9.77;;;3.83;;
10711;SDS011;5407;51.234;6.804;2023-05-27T10:17:11;5.53;;;3.45;;
10711;SDS011;5407;51.234;6.804;2023-05-27T10:19:50;7.68;;;3.65;;
10711;SDS011;5407;51.234;6.804;2023-05-27T10:22:21;6.82;;;3.50;;
10711;SDS011;5407;51.234;6.804;2023-05-27T10:24:48;6.03;;;3.42;;
10711;SDS011;5407;51.234;6.804;2023-05-27T10:27:15;5.57;;;3.25;;
10711;SDS011;5407;51.234;6.804;2023-05-27T10:29:42;9.10;;;3.65;;
10711;SDS011;5407;51.234;6.804;2023-05-27T10:32:09;8.65;;;3.92;;
10711;SDS011;5407;51.234;6.804;2023-05-27T10:34:36;12.95;;;3.75;;
10711;SDS011;5407;51.234;6.804;2023-05-27T10:37:05;12.10;;;3.40;;
10711;SDS011;5407;51.234;6.804;2023-05-27T10:39:32;10.65;;;4.00;;
10711;SDS011;5407;51.234;6.804;2023-05-27T10:41:59;9.95;;;3.65;;
10711;SDS011;5407;51.234;6.804;2023-05-27T10:44:27;10.88;;;3.95;;
10711;SDS011;5407;51.234;6.804;2023-05-27T10:46:58;7.97;;;3.67;;
10711;SDS011;5407;51.234;6.804;2023-05-27T10:49:26;13.50;;;3.42;;
10711;SDS011;5407;51.234;6.804;2023-05-27T10:52:00;9.18;;;3.53;;
10711;SDS011;5407;51.234;6.804;2023-05-27T10:54:36;9.30;;;3.55;;
10711;SDS011;5407;51.234;6.804;2023-05-27T10:57:03;7.63;;;3.17;;
10711;SDS011;5407;51.234;6.804;2023-05-27T10:59:37;6.38;;;3.17;;
10711;SDS011;5407;51.234;6.804;2023-05-27T11:02:07;8.25;;;3.25;;
10711;SDS011;5407;51.234;6.804;2023-05-27T11:04:34;8.77;;;3.40;;
10711;SDS011;5407;51.234;6.804;2023-05-27T11:07:01;11.35;;;3.58;;
10711;SDS011;5407;51.234;6.804;2023-05-27T11:09:30;13.35;;;3.63;;
10711;SDS011;5407;51.234;6.804;2023-05-27T11:12:00;12.88;;;3.40;;
10711;SDS011;5407;51.234;6.804;2023-05-27T11:14:28;8.50;;;3.05;;
10711;SDS011;5407;51.234;6.804;2023-05-27T11:16:55;10.32;;;3.17;;
10711;SDS011;5407;51.234;6.804;2023-05-27T11:19:22;7.55;;;3.55;;
10711;SDS011;5407;51.234;6.804;2023-05-27T11:21:49;6.63;;;3.45;;
10711;SDS011;5407;51.234;6.804;2023-05-27T11:24:16;6.88;;;3.08;;
10711;SDS011;5407;51.234;6.804;2023-05-27T11:26:45;8.43;;;3.58;;
10711;SDS011;5407;51.234;6.804;2023-05-27T11:29:13;9.93;;;3.55;;
10711;SDS011;5407;51.234;6.804;2023-05-27T11:31:41;11.60;;;3.65;;
10711;SDS011;5407;51.234;6.804;2023-05-27T11:34:13;6.75;;;3.22;;
10711;SDS011;5407;51.234;6.804;2023-05-27T11:36:40;9.32;;;3.00;;
10711;SDS011;5407;51.234;6.804;2023-05-27T11:39:10;17.75;;;3.65;;
10711;SDS011;5407;51.234;6.804;2023-05-27T11:41:48;12.23;;;3.20;;
10711;SDS011;5407;51.234;6.804;2023-05-27T11:44:17;12.98;;;3.35;;
10711;SDS011;5407;51.234;6.804;2023-05-27T11:46:45;8.93;;;3.20;;
10711;SDS011;5407;51.234;6.804;2023-05-27T11:49:14;20.33;;;3.45;;
10711;SDS011;5407;51.234;6.804;2023-05-27T11:51:42;13.35;;;3.53;;
10711;SDS011;5407;51.234;6.804;2023-05-27T11:54:17;13.60;;;3.20;;
10711;SDS011;5407;51.234;6.804;2023-05-27T11:56:47;17.38;;;3.45;;
10711;SDS011;5407;51.234;6.804;2023-05-27T11:59:15;9.15;;;3.17;;
10711;SDS011;5407;51.234;6.804;2023-05-27T12:01:43;12.80;;;3.40;;
10711;SDS011;5407;51.234;6.804;2023-05-27T12:04:10;8.82;;;3.03;;
10711;SDS011;5407;51.234;6.804;2023-05-27T12:06:38;8.45;;;3.00;;
10711;SDS011;5407;51.234;6.804;2023-05-27T12:09:05;9.82;;;3.33;;
10711;SDS011;5407;51.234;6.804;2023-05-27T12:11:33;6.95;;;3.50;;
10711;SDS011;5407;51.234;6.804;2023-05-27T12:14:02;7.38;;;3.20;;
10711;SDS011;5407;51.234;6.804;2023-05-27T12:16:29;5.60;;;3.10;;
10711;SDS011;5407;51.234;6.804;2023-05-27T12:18:57;6.32;;;3.03;;
10711;SDS011;5407;51.234;6.804;2023-05-27T12:21:24;7.20;;;3.30;;
10711;SDS011;5407;51.234;6.804;2023-05-27T12:23:52;7.38;;;3.20;;
10711;SDS011;5407;51.234;6.804;2023-05-27T12:26:19;8.23;;;3.30;;
10711;SDS011;5407;51.234;6.804;2023-05-27T12:28:47;9.23;;;3.35;;
10711;SDS011;5407;51.234;6.804;2023-05-27T12:31:15;8.77;;;3.28;;
10711;SDS011;5407;51.234;6.804;2023-05-27T12:33:43;6.78;;;3.20;;
10711;SDS011;5407;51.234;6.804;2023-05-27T12:36:10;5.75;;;2.90;;
10711;SDS011;5407;51.234;6.804;2023-05-27T12:38:37;4.53;;;2.72;;
10711;SDS011;5407;51.234;6.804;2023-05-27T12:41:04;7.63;;;3.20;;
10711;SDS011;5407;51.234;6.804;2023-05-27T12:43:30;8.60;;;3.05;;
10711;SDS011;5407;51.234;6.804;2023-05-27T12:45:57;7.85;;;3.05;;
10711;SDS011;5407;51.234;6.804;2023-05-27T12:48:26;7.28;;;3.38;;
10711;SDS011;5407;51.234;6.804;2023-05-27T12:50:53;5.57;;;2.55;;
10711;SDS011;5407;51.234;6.804;2023-05-27T12:53:20;3.85;;;2.83;;
10711;SDS011;5407;51.234;6.804;2023-05-27T12:55:47;5.80;;;2.90;;
10711;SDS011;5407;51.234;6.804;2023-05-27T12:58:14;7.38;;;3.30;;
10711;SDS011;5407;51.234;6.804;2023-05-27T13:00:41;9.77;;;3.40;;
10711;SDS011;5407;51.234;6.804;2023-05-27T13:03:09;7.18;;;3.15;;
10711;SDS011;5407;51.234;6.804;2023-05-27T13:05:37;4.63;;;3.15;;
10711;SDS011;5407;51.234;6.804;2023-05-27T13:08:04;5.57;;;3.25;;
10711;SDS011;5407;51.234;6.804;2023-05-27T13:10:31;7.57;;;3.45;;
10711;SDS011;5407;51.234;6.804;2023-05-27T13:12:59;6.00;;;3.28;;
10711;SDS011;5407;51.234;6.804;2023-05-27T13:15:27;5.20;;;2.90;;
10711;SDS011;5407;51.234;6.804;2023-05-27T13:17:55;13.07;;;3.85;;
10711;SDS011;5407;51.234;6.804;2023-05-27T13:20:24;6.55;;;3.42;;
10711;SDS011;5407;51.234;6.804;2023-05-27T13:22:54;5.57;;;3.08;;
10711;SDS011;5407;51.234;6.804;2023-05-27T13:25:25;14.68;;;3.45;;
10711;SDS011;5407;51.234;6.804;2023-05-27T13:27:54;7.10;;;2.90;;
10711;SDS011;5407;51.234;6.804;2023-05-27T13:30:21;7.88;;;3.88;;
10711;SDS011;5407;51.234;6.804;2023-05-27T13:32:49;9.10;;;3.20;;
10711;SDS011;5407;51.234;6.804;2023-05-27T13:35:16;6.63;;;2.83;;
10711;SDS011;5407;51.234;6.804;2023-05-27T13:37:42;7.45;;;3.03;;
10711;SDS011;5407;51.234;6.804;2023-05-27T13:40:11;5.13;;;3.05;;
10711;SDS011;5407;51.234;6.804;2023-05-27T13:42:38;10.23;;;3.05;;
10711;SDS011;5407;51.234;6.804;2023-05-27T13:45:06;5.05;;;2.85;;
10711;SDS011;5407;51.234;6.804;2023-05-27T13:47:34;6.15;;;2.97;;
10711;SDS011;5407;51.234;6.804;2023-05-27T13:50:05;7.57;;;3.22;;
10711;SDS011;5407;51.234;6.804;2023-05-27T13:52:32;7.32;;;2.90;;
10711;SDS011;5407;51.234;6.804;2023-05-27T13:54:58;8.38;;;2.90;;
10711;SDS011;5407;51.234;6.804;2023-05-27T13:57:27;4.38;;;3.20;;
10711;SDS011;5407;51.234;6.804;2023-05-27T13:59:54;4.80;;;2.78;;
10711;SDS011;5407;51.234;6.804;2023-05-27T14:02:21;6.32;;;3.35;;
10711;SDS011;5407;51.234;6.804;2023-05-27T14:04:48;5.72;;;2.90;;
10711;SDS011;5407;51.234;6.804;2023-05-27T14:07:15;7.18;;;3.13;;
10711;SDS011;5407;51.234;6.804;2023-05-27T14:09:42;3.33;;;2.78;;
10711;SDS011;5407;51.234;6.804;2023-05-27T14:12:09;4.05;;;2.58;;
10711;SDS011;5407;51.234;6.804;2023-05-27T14:14:37;6.00;;;2.90;;
10711;SDS011;5407;51.234;6.804;2023-05-27T14:17:04;5.63;;;2.83;;
10711;SDS011;5407;51.234;6.804;2023-05-27T14:19:32;4.03;;;2.85;;
10711;SDS011;5407;51.234;6.804;2023-05-27T14:21:59;2.85;;;2.47;;
10711;SDS011;5407;51.234;6.804;2023-05-27T14:24:26;4.70;;;3.08;;
10711;SDS011;5407;51.234;6.804;2023-05-27T14:26:53;5.30;;;2.80;;
10711;SDS011;5407;51.234;6.804;2023-05-27T14:29:19;5.40;;;2.90;;
10711;SDS011;5407;51.234;6.804;2023-05-27T14:31:48;5.60;;;2.90;;
10711;SDS011;5407;51.234;6.804;2023-05-27T14:34:15;4.25;;;2.78;;
10711;SDS011;5407;51.234;6.804;2023-05-27T14:36:42;4.97;;;2.83;;
10711;SDS011;5407;51.234;6.804;2023-05-27T14:39:08;3.67;;;2.80;;
10711;SDS011;5407;51.234;6.804;2023-05-27T14:41:35;3.42;;;2.65;;
10711;SDS011;5407;51.234;6.804;2023-05-27T14:44:02;4.07;;;2.50;;
10711;SDS011;5407;51.234;6.804;2023-05-27T14:46:29;2.83;;;2.45;;
10711;SDS011;5407;51.234;6.804;2023-05-27T14:48:57;4.30;;;2.72;;
10711;SDS011;5407;51.234;6.804;2023-05-27T14:51:26;5.18;;;2.75;;
10711;SDS011;5407;51.234;6.804;2023-05-27T14:53:53;3.78;;;2.58;;
10711;SDS011;5407;51.234;6.804;2023-05-27T14:56:20;3.38;;;2.50;;
10711;SDS011;5407;51.234;6.804;2023-05-27T14:58:46;4.10;;;2.63;;
10711;SDS011;5407;51.234;6.804;2023-05-27T15:01:13;3.92;;;2.55;;
10711;SDS011;5407;51.234;6.804;2023-05-27T15:03:40;4.57;;;2.60;;